West Latham, New York
Current Conditions -  °F | °C
As of 10:51 PM on Wednesday 22 Oct 2014 (Local Time) from KALB Reporting Station
Light Rain Light Rain  
Wind Chill: 52°   Ceiling: 2500
Heat Index: 52°   Visibility: 10mi
Dew Point: 44°   Wind: 17mph
Humidity: 74%   Direction: 360°N
Pressure: 29.93"   Gusts: 28mph
Location:  42.7511°N, 73.7732°W
Report Text: KALB 230251Z 36015G24KT 10SM -RA OVC025 11/07 A2993 RMK AO2 RAB45 SLP137 P0000 60004 T01110067 58018
Loading
Personal Weather Stations






























Interactive Weather Map
Tropical Storm Tracking
New forecast layout! Learn more

10-Day Weather Forecast

Advertisements
Track Severe Weather on mobile